LELC/MJV METAR and TAF weather

Enter ICAO airport designator
Station Type Date Time Source
LELC METAR 2020/04/07 16:30 UTC NOAA

LELC 071630Z 07008KT 040V120 9999 FEW020 17/12 Q1024 NOSIG


Station Type Date Time Source
LELC Decoded METAR 2020/04/07 16:30 UTC NOAA

Murcia / San Javier, Spain (LELC) 37-47N 000-48W 3M
Apr 07, 2020 - 12:30 PM EDT / 2020.04.07 1630 UTC
Wind: from the ENE (070 degrees) at 9 MPH (8 KT) (direction variable):0
Visibility: greater than 7 mile(s):0
Sky conditions: mostly clear
Temperature: 62 F (17 C)
Dew Point: 53 F (12 C)
Relative Humidity: 72%
Pressure (altimeter): 30.24 in. Hg (1024 hPa)
ob: LELC 071630Z 07008KT 040V120 9999 FEW020 17/12 Q1024 NOSIG
cycle: 16

Station Type Date Time Source
LELC TAF 2020/04/07 12:37 UTC NOAA

TAF LELC 071100Z 0712/0812 07010KT 9999 FEW020 TX19/0713Z TN12/0806Z
BECMG 0719/0722 01006KT

Example: see airport list